Overview Statistics Trail Chart Weather Telemetry Raw packets
 

This is the latest recevied weather packets stored in our database for station/object OK1FET-4. If no packets are shown the sender has not sent any weather packets the latest 10 day(s).

<< 42 43 44 45 46 47 48 >>
Time Temp. Humidity Pressure Rain* Wind** Luminosity Snow
1788374220 15.56° C 100% 1020.3 hPa - - - -
1788373919 15.56° C 100% 1020.4 hPa - - - -
1788373619 15.56° C 100% 1020.4 hPa - - - -
1788373318 15.56° C 100% 1020.4 hPa - - - -
1788373018 15° C 100% 1020.5 hPa - - - -
1788372717 15.56° C 100% 1020.6 hPa - - - -
1788372442 15.56° C 93% 1020.5 hPa - - - -
1788372116 16.67° C 78% 1020.1 hPa - - - -
1788371815 20° C 56% 1019.8 hPa - - - -
1788371514 21.11° C 48% 1019.7 hPa - - - -
1788371213 21.67° C 47% 1019.6 hPa - - - -
1788370912 21.67° C 46% 1019.5 hPa - - - -
1788370611 21.67° C 46% 1019.5 hPa - - - -
1788370310 21.67° C 46% 1019.5 hPa - - - -
1788370009 22.22° C 46% 1019.5 hPa - - - -
1788369708 22.22° C 45% 1019.5 hPa - - - -
1788369407 22.22° C 45% 1019.4 hPa - - - -
1788369106 22.78° C 45% 1019.5 hPa - - - -
1788368805 22.78° C 45% 1019.4 hPa - - - -
1788368504 22.78° C 45% 1019.5 hPa - - - -
1788368202 22.78° C 44% 1019.5 hPa - - - -
1788367901 23.33° C 44% 1019.5 hPa - - - -
1788367600 23.33° C 43% 1019.5 hPa - - - -
1788367299 23.89° C 43% 1019.6 hPa - - - -
1788366998 24.44° C 42% 1019.6 hPa - - - -

* Rain since midnight (hover to see other rain measurements)
** Current wind speed in m/s (hover to see current wind gust speed)